Time;durP1;ratioP1;P1;durP2;ratioP2;P2;SDS_P1;SDS_P2;PMS_P1;PMS_P2;Temp;Humidity;BMP_temperature;BMP_pressure;BME280_temperature;BME280_humidity;BME280_pressure;Samples;Min_cycle;Max_cycle;Signal;HPM_P1;HPM_P2
2022/11/12 00:01:00;;;;;;;35.55;19.83;;;5.20;99.90;;;;;;5072271;28;20143;-29
2022/11/12 00:03:26;;;;;;;32.58;18.40;;;5.20;99.90;;;;;;5073478;28;20102;-29
2022/11/12 00:05:52;;;;;;;37.80;20.15;;;5.30;99.90;;;;;;5073966;28;20048;-29
2022/11/12 00:08:18;;;;;;;41.53;19.55;;;5.40;99.90;;;;;;5072803;28;20045;-29
2022/11/12 00:10:44;;;;;;;38.63;20.80;;;5.30;99.90;;;;;;5055692;28;20049;-29
2022/11/12 00:13:10;;;;;;;33.67;21.73;;;5.20;99.90;;;;;;5073308;28;20041;-29
2022/11/12 00:15:36;;;;;;;37.13;19.88;;;5.30;99.90;;;;;;5073056;28;20053;-29
2022/11/12 00:18:01;;;;;;;33.00;19.83;;;5.30;99.90;;;;;;5073798;28;20067;-29
2022/11/12 00:20:27;;;;;;;36.67;20.17;;;5.40;99.90;;;;;;5073328;28;20043;-29
2022/11/12 00:22:52;;;;;;;37.10;20.02;;;5.30;99.90;;;;;;5073218;28;20527;-29
2022/11/12 00:25:18;;;;;;;37.95;20.73;;;5.40;99.90;;;;;;5056173;28;20076;-29
2022/11/12 00:27:44;;;;;;;30.42;18.58;;;5.40;99.90;;;;;;5073154;28;20086;-29
2022/11/12 00:30:10;;;;;;;38.05;22.10;;;5.30;99.90;;;;;;5073953;28;20088;-30
2022/11/12 00:32:36;;;;;;;37.45;20.45;;;5.30;99.90;;;;;;5073144;28;20051;-29
2022/11/12 00:35:04;;;;;;;39.80;20.85;;;5.30;99.90;;;;;;5072997;28;20482;-29
2022/11/12 00:37:29;;;;;;;40.13;21.02;;;5.30;99.90;;;;;;5074955;28;20150;-29
2022/11/12 00:39:55;;;;;;;41.55;20.67;;;5.30;99.90;;;;;;5077068;28;20057;-29
2022/11/12 00:42:21;;;;;;;36.58;21.48;;;5.40;99.90;;;;;;5076818;28;20045;-29
2022/11/12 00:44:48;;;;;;;36.88;20.48;;;5.40;99.90;;;;;;5075786;28;20383;-29
2022/11/12 00:47:15;;;;;;;37.35;20.85;;;5.40;99.90;;;;;;5076747;28;20056;-29
2022/11/12 00:49:40;;;;;;;39.95;21.05;;;5.20;99.90;;;;;;5076738;28;20053;-30
2022/11/12 00:52:06;;;;;;;32.13;19.13;;;5.20;99.90;;;;;;5059024;28;20051;-29
2022/11/12 00:54:32;;;;;;;40.50;21.15;;;5.10;99.90;;;;;;5059626;28;20044;-30
2022/11/12 00:56:58;;;;;;;41.15;21.98;;;5.30;99.90;;;;;;5076510;28;20084;-29
2022/11/12 00:59:23;;;;;;;35.47;19.50;;;5.20;99.90;;;;;;5076533;28;20040;-29
2022/11/12 01:01:49;;;;;;;39.55;21.88;;;5.20;99.90;;;;;;5075555;28;20163;-29
2022/11/12 01:04:15;;;;;;;38.70;21.13;;;5.00;99.90;;;;;;5076414;28;20495;-29
2022/11/12 01:06:41;;;;;;;34.42;20.92;;;5.00;99.90;;;;;;5059107;28;20094;-29
2022/11/12 01:09:08;;;;;;;41.17;21.48;;;4.90;99.90;;;;;;5076297;28;20044;-29
2022/11/12 01:11:34;;;;;;;43.65;22.95;;;5.00;99.90;;;;;;5076175;28;20123;-29
2022/11/12 01:14:03;;;;;;;38.40;22.17;;;4.90;99.90;;;;;;5074758;28;20135;-29
2022/11/12 01:16:34;;;;;;;41.15;21.23;;;5.00;99.90;;;;;;5076255;28;20037;-29
2022/11/12 01:19:01;;;;;;;42.03;23.48;;;4.80;99.90;;;;;;5076185;28;20051;-30
2022/11/12 01:21:30;;;;;;;44.80;23.27;;;4.80;99.90;;;;;;5076142;28;20452;-29
2022/11/12 01:24:01;;;;;;;46.20;22.88;;;4.90;99.90;;;;;;5076901;28;20459;-29
2022/11/12 01:26:27;;;;;;;46.60;24.20;;;4.90;99.90;;;;;;5074777;28;20080;-29
2022/11/12 01:28:54;;;;;;;48.60;24.73;;;4.90;99.90;;;;;;5076526;28;20084;-30
2022/11/12 01:31:28;;;;;;;40.70;23.27;;;5.00;99.90;;;;;;5074752;28;20052;-29
2022/11/12 01:34:00;;;;;;;44.20;23.20;;;5.00;99.90;;;;;;5075951;28;20544;-29
2022/11/12 01:36:27;;;;;;;50.35;25.90;;;5.10;99.90;;;;;;5075892;28;20044;-29
2022/11/12 01:38:54;;;;;;;46.10;24.20;;;5.10;99.90;;;;;;5074803;28;20036;-30
2022/11/12 01:41:26;;;;;;;45.10;23.38;;;4.90;99.90;;;;;;5074811;28;20052;-29
2022/11/12 01:44:36;;;;;;;43.58;22.33;;;4.70;99.90;;;;;;5076286;28;20386;-29
2022/11/12 01:47:20;;;;;;;45.78;23.48;;;4.80;99.90;;;;;;5074297;28;20065;-29
2022/11/12 01:49:58;;;;;;;42.10;22.55;;;4.80;99.90;;;;;;5074955;28;20136;-29
2022/11/12 01:52:34;;;;;;;48.10;25.10;;;4.70;99.90;;;;;;5075592;28;20041;-29
2022/11/12 01:55:34;;;;;;;51.28;25.17;;;4.50;99.90;;;;;;5075479;28;20040;-29
2022/11/12 01:58:13;;;;;;;52.75;24.95;;;4.70;99.90;;;;;;5052342;28;20056;-29
2022/11/12 02:00:40;;;;;;;53.85;25.38;;;4.50;99.90;;;;;;5075428;28;20053;-29
2022/11/12 02:03:17;;;;;;;53.00;25.65;;;4.50;99.90;;;;;;5074319;28;20055;-29
2022/11/12 02:05:45;;;;;;;57.70;25.67;;;4.60;99.90;;;;;;5075851;28;20127;-29
2022/11/12 02:08:11;;;;;;;47.53;25.02;;;4.60;99.90;;;;;;5075733;28;20363;-30
2022/11/12 02:10:38;;;;;;;53.25;27.00;;;4.60;99.90;;;;;;5075079;28;20044;-29
2022/11/12 02:15:49;;;;;;;64.85;28.58;;;4.50;99.90;;;;;;5058963;28;20091;-29
2022/11/12 02:18:15;;;;;;;66.70;30.83;;;4.40;99.90;;;;;;5075569;28;20052;-30
2022/11/12 02:20:40;;;;;;;51.72;27.50;;;4.50;99.90;;;;;;5074979;28;20041;-29
2022/11/12 02:23:07;;;;;;;59.97;29.08;;;4.60;99.90;;;;;;5075732;28;20474;-32
2022/11/12 02:25:33;;;;;;;66.13;31.17;;;4.50;99.90;;;;;;5074816;28;20040;-29
2022/11/12 02:28:01;;;;;;;60.60;29.58;;;4.50;99.90;;;;;;5075068;28;20045;-29
2022/11/12 02:30:38;;;;;;;70.43;32.05;;;4.60;99.90;;;;;;5057119;28;20040;-29
2022/11/12 02:33:04;;;;;;;86.90;34.83;;;4.60;99.90;;;;;;5074651;28;20044;-29
2022/11/12 02:35:30;;;;;;;68.88;31.63;;;4.70;99.90;;;;;;5074874;28;20128;-29
2022/11/12 02:37:56;;;;;;;63.47;32.13;;;4.60;99.90;;;;;;5074414;28;20110;-29
2022/11/12 02:40:22;;;;;;;70.15;33.97;;;4.70;99.90;;;;;;5074519;28;20049;-29
2022/11/12 02:42:48;;;;;;;69.35;33.70;;;4.70;99.90;;;;;;5074765;28;20051;-29
2022/11/12 02:45:14;;;;;;;80.22;37.45;;;4.80;99.90;;;;;;5074509;28;20478;-30
2022/11/12 02:47:40;;;;;;;83.60;35.95;;;4.70;99.90;;;;;;5074409;28;20048;-30
2022/11/12 02:50:07;;;;;;;67.03;33.45;;;4.60;99.90;;;;;;5056746;28;20049;-29
2022/11/12 02:52:33;;;;;;;67.60;31.60;;;4.60;99.90;;;;;;5074342;28;20036;-29
2022/11/12 02:54:59;;;;;;;74.07;33.80;;;4.50;99.90;;;;;;5073019;28;20048;-29
2022/11/12 02:57:25;;;;;;;78.65;34.38;;;4.60;99.90;;;;;;5074785;28;20067;-29
2022/11/12 02:59:51;;;;;;;73.05;33.17;;;4.60;99.90;;;;;;5074466;28;20044;-29
2022/11/12 03:02:17;;;;;;;80.95;34.97;;;4.60;99.90;;;;;;5073363;28;20087;-29
2022/11/12 03:04:42;;;;;;;69.88;32.95;;;4.50;99.90;;;;;;5074121;28;20091;-29
2022/11/12 03:07:08;;;;;;;74.25;35.30;;;4.40;99.90;;;;;;5074031;28;20041;-29
2022/11/12 03:09:34;;;;;;;80.97;36.05;;;4.40;99.90;;;;;;5073743;28;20402;-29
2022/11/12 03:11:59;;;;;;;83.88;37.72;;;4.30;99.90;;;;;;5073680;28;20478;-29
2022/11/12 03:14:25;;;;;;;84.10;37.28;;;4.50;99.90;;;;;;5073623;28;20131;-28
2022/11/12 03:16:51;;;;;;;94.20;38.90;;;4.50;99.90;;;;;;5072767;28;20045;-29
2022/11/12 03:19:17;;;;;;;84.38;37.35;;;4.50;99.90;;;;;;5074436;28;20049;-29
2022/11/12 03:21:42;;;;;;;89.70;36.72;;;4.50;99.90;;;;;;5074526;28;20051;-29
2022/11/12 03:24:08;;;;;;;119.53;42.70;;;4.30;99.90;;;;;;5072755;28;20048;-29
2022/11/12 03:26:34;;;;;;;218.32;41.78;;;4.50;99.90;;;;;;5073829;28;20403;-29
2022/11/12 03:28:59;;;;;;;142.05;41.20;;;4.40;99.90;;;;;;5073507;28;20097;-29
2022/11/12 03:31:25;;;;;;;90.85;36.78;;;4.30;99.90;;;;;;5073066;28;20119;-29
2022/11/12 03:33:51;;;;;;;104.35;39.33;;;4.30;99.90;;;;;;5074255;28;20467;-29
2022/11/12 03:36:17;;;;;;;79.25;37.17;;;4.10;99.90;;;;;;5073291;28;20036;-29
2022/11/12 03:38:43;;;;;;;183.15;48.53;;;4.30;99.90;;;;;;5056401;28;20091;-30
2022/11/12 03:41:09;;;;;;;107.18;40.78;;;4.30;99.90;;;;;;5056461;28;20044;-29
2022/11/12 03:43:35;;;;;;;129.50;39.80;;;4.30;99.90;;;;;;5073657;28;20470;-30
2022/11/12 03:46:00;;;;;;;99.00;40.38;;;4.30;99.90;;;;;;5073637;28;20041;-30
2022/11/12 03:48:26;;;;;;;93.88;39.33;;;4.10;99.90;;;;;;5074231;28;20395;-30
2022/11/12 03:50:57;;;;;;;76.50;35.88;;;4.20;99.90;;;;;;5072979;28;20080;-29
2022/11/12 03:53:22;;;;;;;88.07;38.25;;;4.30;99.90;;;;;;5074143;28;20041;-30
2022/11/12 03:55:48;;;;;;;110.18;44.42;;;4.40;99.90;;;;;;5073491;28;20094;-29
2022/11/12 03:58:14;;;;;;;81.55;40.20;;;4.20;99.90;;;;;;5073588;28;20402;-29
2022/11/12 04:00:40;;;;;;;108.55;43.33;;;4.40;99.90;;;;;;5074040;28;20536;-30
2022/11/12 04:03:05;;;;;;;83.75;40.08;;;4.40;99.90;;;;;;5055616;28;20083;-29
2022/11/12 04:08:37;;;;;;;91.90;40.78;;;4.40;99.90;;;;;;5044800;28;20056;-29
2022/11/12 04:11:04;;;;;;;80.78;41.00;;;4.50;99.90;;;;;;5073373;28;20131;-29
2022/11/12 04:13:30;;;;;;;78.10;36.67;;;4.40;99.90;;;;;;5076389;28;20075;-30
2022/11/12 04:21:50;;;;;;;71.22;36.80;;;4.20;99.90;;;;;;5077283;28;20110;-29
2022/11/12 04:27:03;;;;;;;90.95;39.50;;;4.10;99.90;;;;;;5076165;28;20064;-29
2022/11/12 04:32:13;;;;;;;113.22;44.60;;;4.00;99.90;;;;;;5077365;28;20059;-29
2022/11/12 04:34:39;;;;;;;82.00;38.50;;;4.10;99.90;;;;;;5076735;28;20040;-30
2022/11/12 04:37:05;;;;;;;88.47;40.45;;;4.10;99.90;;;;;;5077536;28;20045;-29
2022/11/12 04:39:31;;;;;;;93.10;39.72;;;3.90;99.90;;;;;;5076858;28;20117;-29
2022/11/12 04:44:58;;;;;;;100.95;41.47;;;3.90;99.90;;;;;;5076843;28;20135;-29
2022/11/12 04:47:25;;;;;;;122.20;48.20;;;3.80;99.90;;;;;;5076762;28;20467;-29
2022/11/12 04:49:51;;;;;;;94.38;42.03;;;3.90;99.90;;;;;;5058795;28;20135;-29
2022/11/12 04:52:17;;;;;;;99.88;43.70;;;3.90;99.90;;;;;;5076500;28;20474;-29
2022/11/12 04:54:42;;;;;;;106.10;46.67;;;4.00;99.90;;;;;;5076212;28;20391;-30
2022/11/12 04:57:08;;;;;;;101.75;48.13;;;4.30;99.90;;;;;;5076172;28;20048;-30
2022/11/12 04:59:34;;;;;;;105.80;49.33;;;4.30;99.90;;;;;;5076545;28;20048;-29
2022/11/12 05:02:00;;;;;;;105.97;49.38;;;4.50;99.90;;;;;;5075286;28;20110;-29
2022/11/12 05:04:27;;;;;;;121.40;47.47;;;4.70;99.90;;;;;;5076478;28;20501;-29
2022/11/12 05:06:55;;;;;;;93.90;43.80;;;4.70;99.90;;;;;;5075415;28;20040;-29
2022/11/12 05:09:23;;;;;;;102.10;46.80;;;4.70;99.90;;;;;;5076090;28;20053;-29
2022/11/12 05:11:49;;;;;;;95.30;45.10;;;4.70;99.90;;;;;;5076347;28;20048;-29
2022/11/12 05:14:15;;;;;;;91.90;44.17;;;4.90;99.90;;;;;;5076159;28;20127;-30
2022/11/12 05:16:40;;;;;;;77.72;41.08;;;5.00;99.90;;;;;;5074513;28;20140;-29
2022/11/12 05:19:06;;;;;;;98.70;44.17;;;5.00;99.90;;;;;;5076166;28;20053;-30
2022/11/12 05:24:16;;;;;;;77.90;42.70;;;5.00;99.90;;;;;;5075175;28;20502;-29
2022/11/12 05:26:42;;;;;;;95.68;46.35;;;5.10;99.90;;;;;;5075085;28;20041;-30
2022/11/12 05:29:07;;;;;;;87.55;45.50;;;5.00;99.90;;;;;;5075031;28;20581;-30
2022/11/12 05:31:33;;;;;;;92.05;46.10;;;5.30;99.90;;;;;;5076239;28;20052;-30
2022/11/12 05:33:59;;;;;;;117.28;52.15;;;5.30;99.90;;;;;;5058028;28;20394;-30
2022/11/12 05:36:25;;;;;;;103.30;48.28;;;5.30;99.90;;;;;;5076906;28;20119;-29
2022/11/12 05:38:51;;;;;;;138.88;53.03;;;5.30;99.90;;;;;;5075821;28;20474;-30
2022/11/12 05:41:16;;;;;;;162.85;57.80;;;5.50;99.90;;;;;;5076037;28;20045;-29
2022/11/12 05:43:42;;;;;;;200.55;64.95;;;5.40;99.90;;;;;;5058490;28;20045;-30
2022/11/12 05:46:08;;;;;;;300.27;73.78;;;5.60;99.90;;;;;;5075972;28;20417;-30
2022/11/12 05:48:34;;;;;;;290.40;73.10;;;5.70;99.90;;;;;;5075639;28;20397;-30
2022/11/12 05:50:59;;;;;;;235.32;71.20;;;5.60;99.90;;;;;;5074461;28;20040;-30
2022/11/12 05:53:25;;;;;;;300.23;77.55;;;5.80;99.90;;;;;;5075555;28;20048;-29
2022/11/12 05:55:51;;;;;;;293.25;68.65;;;5.80;99.90;;;;;;5075418;28;20441;-30
2022/11/12 05:58:17;;;;;;;455.40;91.20;;;5.70;99.90;;;;;;5074872;28;20143;-30
2022/11/12 06:00:42;;;;;;;398.52;84.97;;;5.70;99.90;;;;;;5075093;28;20045;-30
2022/11/12 06:03:10;;;;;;;469.08;93.22;;;5.80;99.90;;;;;;5075338;28;20489;-30
2022/11/12 06:05:36;;;;;;;274.33;70.57;;;5.80;99.90;;;;;;5075285;28;20079;-30
2022/11/12 06:08:04;;;;;;;326.58;80.97;;;5.80;99.90;;;;;;5057573;28;20060;-29
2022/11/12 06:10:31;;;;;;;338.50;78.00;;;5.80;99.90;;;;;;5074166;28;20147;-30
2022/11/12 06:12:57;;;;;;;359.35;83.82;;;5.80;99.90;;;;;;5073971;28;20056;-30
2022/11/12 06:15:26;;;;;;;521.88;103.47;;;5.90;99.90;;;;;;5074924;28;20509;-30
2022/11/12 06:17:55;;;;;;;282.33;73.65;;;5.90;99.90;;;;;;5057695;28;20048;-30
2022/11/12 06:20:21;;;;;;;597.22;111.60;;;6.00;99.90;;;;;;5073785;28;20123;-30
2022/11/12 06:22:48;;;;;;;606.28;112.03;;;6.10;99.90;;;;;;5074953;28;20048;-31
2022/11/12 06:25:13;;;;;;;460.75;99.80;;;6.10;99.90;;;;;;5074918;28;20047;-29
2022/11/12 06:27:39;;;;;;;440.60;99.15;;;6.20;99.90;;;;;;5074233;28;20048;-30
2022/11/12 06:30:06;;;;;;;532.78;113.38;;;6.40;99.90;;;;;;5074774;28;20094;-29
2022/11/12 06:32:32;;;;;;;483.90;111.78;;;6.30;99.90;;;;;;5073738;28;20048;-30
2022/11/12 06:34:59;;;;;;;411.10;95.82;;;6.40;99.90;;;;;;5073580;28;20482;-29
2022/11/12 06:37:25;;;;;;;346.35;86.75;;;6.50;99.90;;;;;;5073162;28;20049;-29
2022/11/12 06:39:50;;;;;;;391.38;90.93;;;6.40;99.90;;;;;;5074890;28;20131;-30
2022/11/12 06:42:17;;;;;;;409.73;91.28;;;6.30;99.90;;;;;;5074606;28;20399;-29
2022/11/12 06:44:42;;;;;;;505.73;103.85;;;6.30;99.90;;;;;;5074505;28;20437;-29
2022/11/12 06:47:09;;;;;;;484.25;105.70;;;6.30;99.90;;;;;;5074995;28;20044;-29
2022/11/12 06:49:35;;;;;;;502.90;101.15;;;6.20;99.90;;;;;;5074439;28;20048;-29
2022/11/12 06:52:01;;;;;;;552.42;108.57;;;6.30;99.90;;;;;;5073150;28;20093;-29
2022/11/12 06:54:26;;;;;;;574.75;102.15;;;6.20;99.90;;;;;;5074514;28;20117;-30
2022/11/12 06:56:52;;;;;;;468.27;91.35;;;6.20;99.90;;;;;;5073076;28;20546;-29
2022/11/12 06:59:18;;;;;;;588.97;106.60;;;6.10;99.90;;;;;;5073086;28;20055;-30
2022/11/12 07:01:44;;;;;;;627.33;108.13;;;6.10;99.90;;;;;;5074188;28;20067;-29
2022/11/12 07:04:10;;;;;;;639.60;111.18;;;6.00;99.90;;;;;;5074189;28;20105;-29
2022/11/12 07:06:36;;;;;;;720.20;116.25;;;6.10;99.90;;;;;;5074058;28;20487;-29
2022/11/12 07:09:03;;;;;;;377.67;76.53;;;6.00;99.90;;;;;;5074052;28;20054;-29
2022/11/12 07:11:29;;;;;;;441.98;88.90;;;6.00;99.90;;;;;;5073077;28;20086;-31
2022/11/12 07:13:55;;;;;;;598.58;105.97;;;6.00;99.90;;;;;;5072816;28;20080;-29
2022/11/12 07:16:21;;;;;;;518.75;100.93;;;6.00;99.90;;;;;;5055620;28;20064;-30
2022/11/12 07:18:47;;;;;;;623.80;109.45;;;6.00;99.90;;;;;;5073922;28;20556;-30
2022/11/12 07:21:18;;;;;;;594.20;107.82;;;6.10;99.90;;;;;;5073807;28;20044;-30
2022/11/12 07:23:46;;;;;;;511.23;94.20;;;6.10;99.90;;;;;;5074367;28;20098;-31
2022/11/12 07:26:13;;;;;;;449.50;90.63;;;6.10;99.90;;;;;;5073741;28;20509;-30
2022/11/12 07:28:39;;;;;;;483.40;92.75;;;6.10;99.90;;;;;;5073782;28;20048;-30
2022/11/12 07:31:08;;;;;;;468.23;90.75;;;6.10;99.90;;;;;;5074473;28;20056;-31
2022/11/12 07:33:34;;;;;;;413.92;79.65;;;6.20;99.90;;;;;;5073996;28;20040;-30
2022/11/12 07:36:03;;;;;;;552.85;102.15;;;6.20;99.90;;;;;;5074225;28;20098;-30
2022/11/12 07:38:30;;;;;;;623.08;108.45;;;6.30;99.90;;;;;;5072355;28;20036;-31
2022/11/12 07:41:04;;;;;;;682.08;113.90;;;6.30;99.90;;;;;;5073648;28;20040;-31
2022/11/12 07:43:34;;;;;;;580.45;104.68;;;6.40;99.90;;;;;;5073712;28;20092;-31
2022/11/12 07:46:11;;;;;;;515.95;95.95;;;6.40;99.90;;;;;;5073297;28;20383;-31
2022/11/12 07:48:38;;;;;;;481.85;87.97;;;6.50;99.90;;;;;;5073987;28;20049;-31
2022/11/12 07:51:12;;;;;;;557.10;102.93;;;6.50;99.90;;;;;;5073574;28;20131;-31
2022/11/12 07:53:38;;;;;;;477.08;88.32;;;6.60;99.90;;;;;;5073440;28;20087;-31
2022/11/12 07:56:04;;;;;;;535.97;93.72;;;6.60;99.90;;;;;;5073460;28;20051;-31
2022/11/12 07:58:32;;;;;;;634.83;105.47;;;6.60;99.90;;;;;;5073781;28;20127;-31
2022/11/12 08:01:06;;;;;;;600.97;105.72;;;6.60;99.90;;;;;;5073458;28;20048;-32
2022/11/12 08:03:31;;;;;;;512.83;94.68;;;6.80;99.90;;;;;;5072673;28;20098;-31
2022/11/12 08:05:59;;;;;;;415.23;76.25;;;6.80;99.90;;;;;;5073408;28;20040;-31
2022/11/12 08:08:25;;;;;;;489.00;88.35;;;6.80;99.90;;;;;;5073315;28;20052;-31
2022/11/12 08:10:55;;;;;;;415.30;85.65;;;6.70;99.90;;;;;;5073270;28;20056;-31
2022/11/12 08:13:21;;;;;;;409.75;81.13;;;6.80;99.90;;;;;;5072378;28;20087;-31
2022/11/12 08:15:47;;;;;;;531.65;97.25;;;6.80;99.90;;;;;;5072494;28;20110;-31
2022/11/12 08:18:13;;;;;;;499.25;100.90;;;6.90;99.90;;;;;;5073510;28;20052;-31
2022/11/12 08:20:38;;;;;;;411.73;73.00;;;6.90;99.90;;;;;;5073017;28;20541;-31
2022/11/12 08:23:04;;;;;;;494.83;95.95;;;6.90;99.90;;;;;;5072065;28;20125;-32
2022/11/12 08:25:30;;;;;;;441.77;81.65;;;6.90;99.90;;;;;;5072102;28;20406;-32
2022/11/12 08:27:57;;;;;;;400.08;76.95;;;6.90;99.90;;;;;;5073505;28;20494;-32
2022/11/12 08:30:24;;;;;;;513.97;100.43;;;6.90;99.90;;;;;;5073860;28;20045;-32
2022/11/12 08:33:02;;;;;;;490.35;96.07;;;7.00;99.90;;;;;;5072017;28;20130;-32
2022/11/12 08:35:31;;;;;;;481.70;86.18;;;7.00;99.90;;;;;;5073059;28;20037;-32
2022/11/12 08:37:58;;;;;;;422.23;76.50;;;7.00;99.90;;;;;;5073849;28;20398;-31
2022/11/12 08:40:25;;;;;;;295.73;54.70;;;7.00;99.90;;;;;;5073007;28;20052;-32
2022/11/12 08:43:03;;;;;;;467.65;80.00;;;6.90;99.90;;;;;;5073010;28;20521;-32
2022/11/12 08:45:31;;;;;;;384.05;68.97;;;6.90;99.90;;;;;;5072467;28;20378;-33
2022/11/12 08:48:02;;;;;;;461.63;74.72;;;7.10;99.90;;;;;;5073036;28;20045;-32
2022/11/12 08:50:28;;;;;;;411.58;66.50;;;7.00;99.90;;;;;;5073023;28;20075;-32
2022/11/12 08:53:06;;;;;;;453.75;67.38;;;7.10;99.90;;;;;;5072999;28;20410;-32
2022/11/12 08:55:33;;;;;;;511.83;72.70;;;7.20;99.90;;;;;;5073392;28;20040;-33
2022/11/12 08:58:02;;;;;;;445.15;64.25;;;7.20;99.90;;;;;;5072968;28;20135;-32
2022/11/12 09:00:37;;;;;;;471.02;77.70;;;7.20;99.90;;;;;;5074411;28;20519;-33
2022/11/12 09:03:05;;;;;;;535.08;79.55;;;7.30;99.90;;;;;;5076759;28;20143;-32
2022/11/12 09:05:32;;;;;;;521.28;80.43;;;7.20;99.90;;;;;;5076389;28;20135;-33
2022/11/12 09:08:00;;;;;;;530.40;68.80;;;7.40;99.90;;;;;;5076409;28;20045;-33
2022/11/12 09:10:27;;;;;;;501.25;69.22;;;7.50;99.90;;;;;;5075046;28;20119;-33
2022/11/12 09:12:52;;;;;;;617.80;80.88;;;7.50;99.90;;;;;;5076244;28;20048;-32
2022/11/12 09:15:22;;;;;;;561.83;76.38;;;7.50;99.90;;;;;;5075798;28;20110;-33
2022/11/12 09:18:00;;;;;;;520.58;69.07;;;7.50;99.90;;;;;;5076532;28;20441;-34
2022/11/12 09:20:27;;;;;;;529.95;71.60;;;7.70;99.90;;;;;;5076235;28;20056;-32
2022/11/12 09:22:56;;;;;;;504.58;63.65;;;7.70;99.90;;;;;;5075107;28;20044;-33
2022/11/12 09:25:22;;;;;;;494.33;63.00;;;7.70;99.90;;;;;;5076304;28;20067;-33
2022/11/12 09:27:48;;;;;;;574.70;70.43;;;7.80;99.90;;;;;;5076006;28;20052;-33
2022/11/12 09:30:14;;;;;;;532.05;70.32;;;7.80;99.90;;;;;;5075941;28;20124;-33
2022/11/12 09:32:39;;;;;;;636.88;78.20;;;7.90;99.90;;;;;;5075966;28;20036;-33
2022/11/12 09:35:05;;;;;;;521.97;70.68;;;7.90;99.90;;;;;;5076082;28;20048;-33
2022/11/12 09:37:31;;;;;;;521.25;71.93;;;8.00;99.90;;;;;;5075909;28;20123;-33
2022/11/12 09:39:57;;;;;;;458.88;65.90;;;8.00;99.90;;;;;;5076041;28;20044;-33
2022/11/12 09:42:23;;;;;;;406.70;62.35;;;7.90;99.90;;;;;;5076580;28;20474;-34
2022/11/12 09:45:23;;;;;;;611.22;78.95;;;7.90;99.90;;;;;;5075906;28;20513;-33
2022/11/12 09:47:57;;;;;;;758.67;91.28;;;8.00;99.90;;;;;;5072426;28;20053;-32
2022/11/12 09:50:32;;;;;;;512.35;73.85;;;8.00;99.90;;;;;;5075566;28;20048;-33
2022/11/12 09:53:20;;;;;;;469.30;71.72;;;8.20;99.90;;;;;;5076086;28;20051;-34
2022/11/12 09:55:48;;;;;;;435.88;69.63;;;8.20;99.90;;;;;;5076190;28;20041;-33
2022/11/12 09:58:16;;;;;;;531.25;76.68;;;8.10;99.90;;;;;;5075384;28;20143;-33
2022/11/12 10:00:55;;;;;;;560.25;79.63;;;8.20;99.90;;;;;;5075359;28;20049;-33
2022/11/12 10:03:38;;;;;;;517.63;75.05;;;8.20;99.90;;;;;;5075373;28;20048;-33
2022/11/12 10:06:15;;;;;;;433.13;70.20;;;8.30;99.90;;;;;;5075320;28;20451;-34
2022/11/12 10:09:04;;;;;;;471.27;69.65;;;8.30;99.90;;;;;;5075731;28;20052;-33
2022/11/12 10:14:38;;;;;;;576.28;81.63;;;8.30;99.90;;;;;;5075276;28;20509;-33
2022/11/12 10:17:40;;;;;;;428.13;69.07;;;8.30;99.90;;;;;;5075020;28;20063;-34
2022/11/12 10:20:18;;;;;;;493.92;71.30;;;8.20;99.90;;;;;;5053243;28;20489;-33
2022/11/12 10:22:59;;;;;;;564.90;80.35;;;8.20;99.90;;;;;;5073918;28;20047;-33
2022/11/12 10:25:26;;;;;;;408.23;65.00;;;8.20;99.90;;;;;;5074943;28;20044;-34
2022/11/12 10:27:54;;;;;;;443.65;68.10;;;8.20;99.90;;;;;;5073594;28;20048;-33
2022/11/12 10:30:22;;;;;;;320.52;61.47;;;8.20;99.90;;;;;;5074539;28;20045;-34
2022/11/12 10:32:51;;;;;;;374.08;65.00;;;8.40;99.90;;;;;;5074614;28;20044;-33
2022/11/12 10:35:22;;;;;;;331.92;66.32;;;8.20;99.90;;;;;;5073645;28;20045;-33
2022/11/12 10:38:04;;;;;;;343.85;63.25;;;8.30;99.90;;;;;;5075464;28;20047;-33
2022/11/12 10:40:38;;;;;;;386.88;66.75;;;8.20;99.90;;;;;;5073956;28;20063;-34
2022/11/12 10:43:16;;;;;;;378.70;67.30;;;8.20;99.90;;;;;;5075127;28;20049;-34
2022/11/12 10:45:43;;;;;;;335.58;63.60;;;8.30;99.90;;;;;;5074377;28;20053;-35
2022/11/12 10:48:29;;;;;;;310.60;63.65;;;8.20;99.90;;;;;;5073798;28;20060;-33
2022/11/12 10:50:55;;;;;;;261.65;56.42;;;8.20;99.90;;;;;;5073469;28;20471;-33
2022/11/12 10:53:33;;;;;;;425.88;68.72;;;8.20;99.90;;;;;;5074217;28;20148;-33
2022/11/12 10:56:04;;;;;;;396.83;70.55;;;8.30;99.90;;;;;;5074219;28;20040;-33
2022/11/12 10:58:30;;;;;;;384.88;69.10;;;8.30;99.90;;;;;;5073890;28;20499;-33
2022/11/12 11:00:59;;;;;;;339.92;66.50;;;8.30;99.90;;;;;;5074409;28;20097;-33
2022/11/12 11:03:46;;;;;;;522.35;81.95;;;8.30;99.90;;;;;;5074159;28;20041;-33
2022/11/12 11:06:15;;;;;;;476.40;81.93;;;8.30;99.90;;;;;;5074412;28;20045;-34
2022/11/12 11:08:49;;;;;;;314.25;64.03;;;8.20;99.90;;;;;;5074124;28;20535;-33
2022/11/12 11:11:15;;;;;;;280.02;62.97;;;8.20;99.90;;;;;;5073996;28;20040;-33
2022/11/12 11:13:45;;;;;;;337.00;75.50;;;8.20;99.90;;;;;;5074039;28;20045;-34
2022/11/12 11:16:47;;;;;;;234.85;60.90;;;8.30;99.90;;;;;;5074055;28;20068;-33
2022/11/12 11:19:13;;;;;;;194.70;59.55;;;8.40;99.90;;;;;;5074483;28;20386;-34
2022/11/12 11:21:48;;;;;;;170.50;51.78;;;8.40;99.90;;;;;;5073126;28;20055;-34
2022/11/12 11:24:32;;;;;;;225.27;60.80;;;8.40;99.90;;;;;;5074439;28;20131;-33
2022/11/12 11:26:58;;;;;;;257.73;64.20;;;8.30;99.90;;;;;;5073808;28;20041;-33
2022/11/12 11:29:34;;;;;;;194.52;54.63;;;8.40;99.90;;;;;;5072910;28;20098;-34
2022/11/12 11:32:30;;;;;;;212.65;57.92;;;8.40;99.90;;;;;;5074994;28;20071;-34
2022/11/12 11:35:05;;;;;;;172.75;54.17;;;8.30;99.90;;;;;;5072870;28;20047;-34
2022/11/12 11:37:37;;;;;;;187.93;56.42;;;8.30;99.90;;;;;;5073764;28;20098;-33
2022/11/12 11:40:29;;;;;;;271.25;66.60;;;8.50;99.90;;;;;;5073781;28;20045;-34
2022/11/12 11:43:29;;;;;;;263.50;67.68;;;8.60;99.90;;;;;;5073268;28;20565;-34
2022/11/12 11:46:13;;;;;;;218.73;62.42;;;8.50;99.90;;;;;;5073698;28;20052;-33
2022/11/12 11:48:57;;;;;;;245.48;66.95;;;8.80;99.90;;;;;;5073932;28;20041;-34
2022/11/12 11:51:50;;;;;;;171.05;51.40;;;8.70;99.90;;;;;;5073543;28;20056;-35
2022/11/12 11:55:04;;;;;;;155.57;49.03;;;8.70;99.90;;;;;;5072569;28;20045;-34
2022/11/12 11:57:40;;;;;;;229.85;56.72;;;8.70;99.90;;;;;;5073277;28;20352;-34
2022/11/12 12:00:20;;;;;;;150.02;51.30;;;8.60;99.90;;;;;;5072261;28;20131;-33
2022/11/12 12:03:01;;;;;;;103.13;44.33;;;8.60;99.90;;;;;;5074014;28;20051;-34
2022/11/12 12:06:02;;;;;;;127.40;53.88;;;8.50;99.90;;;;;;5073505;28;20086;-34
2022/11/12 12:08:43;;;;;;;132.90;53.55;;;8.70;99.90;;;;;;5074247;28;20131;-33
2022/11/12 12:11:15;;;;;;;152.13;55.95;;;8.70;99.90;;;;;;5073247;28;20496;-34
2022/11/12 12:14:06;;;;;;;189.98;58.90;;;8.60;99.90;;;;;;5074196;28;20060;-33
2022/11/12 12:16:58;;;;;;;175.77;55.95;;;8.70;99.90;;;;;;5056806;28;20060;-33
2022/11/12 12:19:34;;;;;;;127.20;53.20;;;8.80;99.90;;;;;;5073223;28;20095;-33
2022/11/12 12:22:04;;;;;;;92.72;45.22;;;8.80;99.90;;;;;;5073832;28;20193;-34
2022/11/12 12:24:48;;;;;;;109.95;50.17;;;8.90;99.90;;;;;;5073187;28;20055;-33
2022/11/12 12:27:20;;;;;;;93.60;41.75;;;8.90;99.90;;;;;;5073248;28;20045;-33
2022/11/12 12:29:57;;;;;;;132.07;54.60;;;8.90;99.90;;;;;;5072947;28;20483;-33
2022/11/12 12:32:34;;;;;;;90.65;46.22;;;9.00;99.90;;;;;;5073319;28;20048;-34
2022/11/12 12:35:03;;;;;;;109.32;49.03;;;9.10;99.90;;;;;;5077150;28;20055;-34
2022/11/12 12:37:38;;;;;;;105.28;46.78;;;9.20;99.90;;;;;;5077051;28;20446;-33
2022/11/12 12:40:25;;;;;;;136.15;52.88;;;9.30;99.90;;;;;;5076900;28;20054;-32
2022/11/12 12:43:01;;;;;;;106.57;49.30;;;9.10;99.90;;;;;;5076015;28;20517;-32
2022/11/12 12:45:40;;;;;;;100.65;48.30;;;9.10;99.90;;;;;;5076887;28;20494;-33
2022/11/12 12:48:13;;;;;;;100.85;48.35;;;9.10;99.90;;;;;;5077154;28;20068;-33
2022/11/12 12:50:41;;;;;;;98.38;48.88;;;9.20;99.90;;;;;;5077366;28;20166;-33
2022/11/12 12:53:24;;;;;;;79.90;44.15;;;9.20;99.90;;;;;;5076718;28;20059;-33
2022/11/12 12:55:57;;;;;;;95.32;46.50;;;9.10;99.90;;;;;;5076206;28;20475;-33
2022/11/12 12:58:25;;;;;;;91.57;48.00;;;9.10;99.90;;;;;;5076559;28;20048;-34
2022/11/12 13:01:18;;;;;;;107.00;50.45;;;9.10;99.90;;;;;;5076495;28;20041;-33
2022/11/12 13:04:07;;;;;;;94.68;50.03;;;9.20;99.90;;;;;;5076827;28;20044;-33
2022/11/12 13:06:52;;;;;;;98.15;50.67;;;9.40;99.90;;;;;;5075532;28;20102;-33
2022/11/12 13:09:18;;;;;;;89.13;47.92;;;9.60;99.90;;;;;;5076402;28;20044;-34
2022/11/12 13:14:30;;;;;;;73.65;44.00;;;9.80;99.90;;;;;;5076564;28;20067;-34